Aeroporto :
LOGIN :

Iscrizione | Disclaimer

   EN    FR    IT 

 










Sommario :    VFR   VFR Marginale   IFR   IFR Intensivo   IFR Molto Intensivo
Visibilità : 
Base nubi : 
>= 8 km
>= 3000ft
5 / 8 km
1000 / 3000 ft
1500m / 5 km
500 / 1000 ft
800 / 1500m
200 / 500 ft
< 800m
< 200 ft
Simboli :   Temporali  Nebbia  Neve Forte  Precipitazioni Forti  Vento > 20 kt
SIGMETs :   Varie  Temporali  Ghiacco  Turbolenza  Onda orograficha  Ceneri Vulcaniche






- Altitudine del aeroporto : 1416 ft
- Codice IATA : ZRH


LSZH - Zurich

ULTIMO METAR :
  • 191650Z 20004KT 160V240 8000 FEW015 SCT045 19/16 Q1017 NOSIG

METARs OBSOLETI :
  • 191620Z 24007KT 8000 FEW014 SCT070 20/16 Q1017 NOSIG
  • 191550Z 22006KT 170V250 7000 FEW014 20/17 Q1017 NOSIG
  • 191520Z 19006KT 7000 FEW012 SCT030 19/17 Q1017 NOSIG
  • 191450Z 21005KT 7000 FEW010 SCT070 19/17 Q1017 TEMPO 4500
  • 191420Z 20005KT 160V240 6000 -RA FEW009 SCT035 19/17 Q1017 TEMPO 4500

TAF TAF LSZH
Valido dal 19 a 15 ore il 20 a 21 ore UTC


191425Z 1915/2021 22005KT 6000 -RA FEW010 SCT035 TX19/1915Z TN15/2004Z TX23/2014Z
PROB40
TEMPO 1915/1918 4000 RA
PROB40 2000/2008 4500 BR BKN009
TEMPO 2008/2016 27010KT SHRA SCT040TCU
ATIS : +41 43 816 2295 (DEP) +41 43 816 2294 (ARR)



MetMap, La meteo Aeronautica in un colpo d'occhio ! - Copyright ORBIFLY Dicembre 2007 - Disclaimer

ORBIFLY MET'MAP TEAM :

Programmazione e sviluppo : Alexandra Zaïnal
Concezione : Baudouin d'Aumeries
Supporto tecnico e logistico : Manuel Goepfert
Aiuto : Marc-Olivier Méhu
Aiuto per la traduzione : Arnaldo La Scala




FONTI E CREDITI :

   NOAA